Orange8 — JL6278 — position and weather

sailwx.info

Track history (hours):
 
Tides and Currents Weather Stations Pressure Air Temp Water Temp Dewpoint Dewpoint Depression Visibility Wind Speed Wind Dir Waves Ship Positions

Orange8

Last reported at 2015-Apr-27 14:33 UTC. Time now 2015-Apr-28 11:48 UTC.
Position N 34°37' E 135°01'.

Length 164 m; draft 5 m.

Type: Passenger vessel. MMSI: 431501603.

Date/timePositionNaut miles runAvg speedWind from/ knotsBaromVisibWave heightAir tempDewpointWater temp
2015-Apr-27 14:33N 34°37' E 135°01'1716.8
2015-Apr-27 13:33N 34°37' E 135°21'4 3.1
2015-Apr-27 12:23N 34°37' E 135°26'0 0.0
2015-Apr-27 11:29N 34°37' E 135°26'0 0.0
2015-Apr-27 10:29N 34°37' E 135°26'0 0.0
2015-Apr-27 09:29N 34°37' E 135°26'0 0.0
2015-Apr-27 08:23N 34°37' E 135°26'0 0.0
2015-Apr-27 07:29N 34°37' E 135°26'0 0.0
2015-Apr-27 06:29N 34°37' E 135°26'0 0.0
2015-Apr-27 05:23N 34°37' E 135°26'0 0.0
2015-Apr-27 04:29N 34°37' E 135°26'0 0.0
2015-Apr-27 03:29N 34°37' E 135°26'0 0.0
2015-Apr-27 02:23N 34°37' E 135°26'0 0.0
2015-Apr-27 01:23N 34°37' E 135°26'0 0.0
2015-Apr-27 00:29N 34°37' E 135°26'0 0.0
2015-Apr-26 23:29N 34°37' E 135°26'0 0.0
2015-Apr-26 22:29N 34°37' E 135°26'0 0.0
2015-Apr-26 21:29N 34°37' E 135°26'6 6.6
2015-Apr-26 20:33N 34°36' E 135°19'1818.4
2015-Apr-26 19:33N 34°36' E 134°56'1 0.0
2015-Apr-25 14:33N 34°37' E 134°57'1817.9
2015-Apr-25 13:33N 34°36' E 135°18'6 5.8
2015-Apr-25 12:28N 34°37' E 135°26'0 0.0
2015-Apr-25 11:28N 34°37' E 135°26'0 0.0
2015-Apr-25 10:28N 34°37' E 135°26'0 0.0
2015-Apr-25 09:28N 34°37' E 135°26'0 0.0
2015-Apr-25 08:28N 34°37' E 135°26'0 0.0
2015-Apr-25 07:28N 34°37' E 135°26'0 0.0
2015-Apr-25 06:31N 34°37' E 135°26'0 0.0
2015-Apr-25 05:25N 34°37' E 135°26'0 0.0
2015-Apr-25 04:25N 34°37' E 135°26'0 0.0
2015-Apr-25 03:31N 34°37' E 135°26'0 0.0
2015-Apr-25 02:31N 34°37' E 135°26'0 0.0
2015-Apr-25 01:31N 34°37' E 135°26'0 0.0
2015-Apr-25 00:31N 34°37' E 135°26'0 0.0
2015-Apr-24 23:25N 34°37' E 135°26'0 0.0
2015-Apr-24 22:07N 34°37' E 135°26'0 0.0
2015-Apr-24 21:19N 34°37' E 135°26'6 7.7
2015-Apr-24 20:33N 34°36' E 135°19'1818.4
2015-Apr-24 19:33N 34°36' E 134°57'1 0.0
2015-Apr-23 14:33N 34°37' E 134°57'1818.4
2015-Apr-23 13:33N 34°37' E 135°19'6 5.4
2015-Apr-23 12:30N 34°37' E 135°26'0 0.0
2015-Apr-23 11:30N 34°37' E 135°26'0 0.0
2015-Apr-23 10:30N 34°37' E 135°26'0 0.0
2015-Apr-23 09:18N 34°37' E 135°26'0 0.0
2015-Apr-23 08:30N 34°37' E 135°26'0 0.0
2015-Apr-23 07:30N 34°37' E 135°26'0 0.0
2015-Apr-23 06:30N 34°37' E 135°26'0 0.0
2015-Apr-23 05:30N 34°37' E 135°26'0 0.0
2015-Apr-23 04:30N 34°37' E 135°26'0 0.0
2015-Apr-23 03:30N 34°37' E 135°26'0 0.0
2015-Apr-23 02:24N 34°37' E 135°26'0 0.0
2015-Apr-23 01:24N 34°37' E 135°26'0 0.0
2015-Apr-23 00:30N 34°37' E 135°26'0 0.0
2015-Apr-22 23:30N 34°37' E 135°26'0 0.0
2015-Apr-22 22:30N 34°37' E 135°26'0 0.0
2015-Apr-22 21:30N 34°37' E 135°26'6 6.2
2015-Apr-22 20:33N 34°36' E 135°19'1918.8
2015-Apr-22 19:33N 34°36' E 134°56'1 0.0
2015-Apr-21 14:33N 34°36' E 134°56'1918.9
2015-Apr-21 13:33N 34°37' E 135°19'6 5.6
2015-Apr-21 12:29N 34°37' E 135°26'0 0.0
2015-Apr-21 11:29N 34°37' E 135°26'0 0.0
2015-Apr-21 10:29N 34°37' E 135°26'0 0.0
2015-Apr-21 09:29N 34°37' E 135°26'0 0.0
2015-Apr-21 08:23N 34°37' E 135°26'0 0.0
2015-Apr-21 07:29N 34°37' E 135°26'0 0.0
2015-Apr-21 06:17N 34°37' E 135°26'0 0.0
2015-Apr-21 05:29N 34°37' E 135°26'0 0.0
2015-Apr-21 04:29N 34°37' E 135°26'0 0.0
2015-Apr-21 03:29N 34°37' E 135°26'0 0.0
2015-Apr-21 02:17N 34°37' E 135°26'0 0.0
2015-Apr-21 01:23N 34°37' E 135°26'0 0.0
2015-Apr-21 00:29N 34°37' E 135°26'0 0.0
2015-Apr-20 23:29N 34°37' E 135°26'0 0.0
2015-Apr-20 22:23N 34°37' E 135°26'0 0.0
2015-Apr-20 21:09N 34°37' E 135°26'5 9.1
2015-Apr-20 20:33N 34°36' E 135°19'1918.8
2015-Apr-20 19:33N 34°36' E 134°57'1 0.0
2015-Apr-19 14:32N 34°36' E 134°55'1919.3
2015-Apr-19 13:33N 34°36' E 135°18'6 6.5
2015-Apr-19 12:33N 34°37' E 135°26'0 0.0
2015-Apr-19 11:21N 34°37' E 135°26'0 0.0
2015-Apr-19 10:33N 34°37' E 135°26'0 0.0
2015-Apr-19 09:33N 34°37' E 135°26'0 0.0
2015-Apr-19 08:33N 34°37' E 135°26'0 0.0
2015-Apr-19 07:33N 34°37' E 135°26'0 0.0
2015-Apr-19 06:27N 34°37' E 135°26'0 0.0
2015-Apr-19 05:33N 34°37' E 135°26'0 0.0
2015-Apr-19 04:33N 34°37' E 135°26'0 0.0
2015-Apr-19 03:33N 34°37' E 135°26'0 0.0
2015-Apr-19 02:33N 34°37' E 135°26'0 0.0
2015-Apr-19 01:33N 34°37' E 135°26'0 0.0
2015-Apr-19 00:15N 34°37' E 135°26'0 0.0
2015-Apr-18 23:21N 34°37' E 135°26'0 0.0
2015-Apr-18 22:33N 34°37' E 135°26'0 0.0
2015-Apr-18 21:33N 34°37' E 135°26'6 6.5
2015-Apr-18 20:33N 34°36' E 135°18'1817.8
2015-Apr-18 19:33N 34°36' E 134°56'1 0.0
2015-Apr-17 14:33N 34°37' E 134°57'  
Track history (hours):
 
Tides and Currents Weather Stations Pressure Air Temp Water Temp Dewpoint Dewpoint Depression Visibility Wind Speed Wind Dir Waves Ship Positions

Orange8

Last reported at 2015-Apr-27 14:33 UTC. Time now 2015-Apr-28 11:48 UTC.
Position N 34°37' E 135°01'.

Length 164 m; draft 5 m.

Type: Passenger vessel. MMSI: 431501603.

Date/timePositionNaut miles runAvg speedWind from/ knotsBaromVisibWave heightAir tempDewpointWater temp
2015-Apr-27 14:33N 34°37' E 135°01'1716.8
2015-Apr-27 13:33N 34°37' E 135°21'4 3.1
2015-Apr-27 12:23N 34°37' E 135°26'0 0.0
2015-Apr-27 11:29N 34°37' E 135°26'0 0.0
2015-Apr-27 10:29N 34°37' E 135°26'0 0.0
2015-Apr-27 09:29N 34°37' E 135°26'0 0.0
2015-Apr-27 08:23N 34°37' E 135°26'0 0.0
2015-Apr-27 07:29N 34°37' E 135°26'0 0.0
2015-Apr-27 06:29N 34°37' E 135°26'0 0.0
2015-Apr-27 05:23N 34°37' E 135°26'0 0.0
2015-Apr-27 04:29N 34°37' E 135°26'0 0.0
2015-Apr-27 03:29N 34°37' E 135°26'0 0.0
2015-Apr-27 02:23N 34°37' E 135°26'0 0.0
2015-Apr-27 01:23N 34°37' E 135°26'0 0.0
2015-Apr-27 00:29N 34°37' E 135°26'0 0.0
2015-Apr-26 23:29N 34°37' E 135°26'0 0.0
2015-Apr-26 22:29N 34°37' E 135°26'0 0.0
2015-Apr-26 21:29N 34°37' E 135°26'6 6.6
2015-Apr-26 20:33N 34°36' E 135°19'1818.4
2015-Apr-26 19:33N 34°36' E 134°56'1 0.0
2015-Apr-25 14:33N 34°37' E 134°57'1817.9
2015-Apr-25 13:33N 34°36' E 135°18'6 5.8
2015-Apr-25 12:28N 34°37' E 135°26'0 0.0
2015-Apr-25 11:28N 34°37' E 135°26'0 0.0
2015-Apr-25 10:28N 34°37' E 135°26'0 0.0
2015-Apr-25 09:28N 34°37' E 135°26'0 0.0
2015-Apr-25 08:28N 34°37' E 135°26'0 0.0
2015-Apr-25 07:28N 34°37' E 135°26'0 0.0
2015-Apr-25 06:31N 34°37' E 135°26'0 0.0
2015-Apr-25 05:25N 34°37' E 135°26'0 0.0
2015-Apr-25 04:25N 34°37' E 135°26'0 0.0
2015-Apr-25 03:31N 34°37' E 135°26'0 0.0
2015-Apr-25 02:31N 34°37' E 135°26'0 0.0
2015-Apr-25 01:31N 34°37' E 135°26'0 0.0
2015-Apr-25 00:31N 34°37' E 135°26'0 0.0
2015-Apr-24 23:25N 34°37' E 135°26'0 0.0
2015-Apr-24 22:07N 34°37' E 135°26'0 0.0
2015-Apr-24 21:19N 34°37' E 135°26'6 7.7
2015-Apr-24 20:33N 34°36' E 135°19'1818.4
2015-Apr-24 19:33N 34°36' E 134°57'1 0.0
2015-Apr-23 14:33N 34°37' E 134°57'1818.4
2015-Apr-23 13:33N 34°37' E 135°19'6 5.4
2015-Apr-23 12:30N 34°37' E 135°26'0 0.0
2015-Apr-23 11:30N 34°37' E 135°26'0 0.0
2015-Apr-23 10:30N 34°37' E 135°26'0 0.0
2015-Apr-23 09:18N 34°37' E 135°26'0 0.0
2015-Apr-23 08:30N 34°37' E 135°26'0 0.0
2015-Apr-23 07:30N 34°37' E 135°26'0 0.0
2015-Apr-23 06:30N 34°37' E 135°26'0 0.0
2015-Apr-23 05:30N 34°37' E 135°26'0 0.0
2015-Apr-23 04:30N 34°37' E 135°26'0 0.0
2015-Apr-23 03:30N 34°37' E 135°26'0 0.0
2015-Apr-23 02:24N 34°37' E 135°26'0 0.0
2015-Apr-23 01:24N 34°37' E 135°26'0 0.0
2015-Apr-23 00:30N 34°37' E 135°26'0 0.0
2015-Apr-22 23:30N 34°37' E 135°26'0 0.0
2015-Apr-22 22:30N 34°37' E 135°26'0 0.0
2015-Apr-22 21:30N 34°37' E 135°26'6 6.2
2015-Apr-22 20:33N 34°36' E 135°19'1918.8
2015-Apr-22 19:33N 34°36' E 134°56'1 0.0
2015-Apr-21 14:33N 34°36' E 134°56'1918.9
2015-Apr-21 13:33N 34°37' E 135°19'6 5.6
2015-Apr-21 12:29N 34°37' E 135°26'0 0.0
2015-Apr-21 11:29N 34°37' E 135°26'0 0.0
2015-Apr-21 10:29N 34°37' E 135°26'0 0.0
2015-Apr-21 09:29N 34°37' E 135°26'0 0.0
2015-Apr-21 08:23N 34°37' E 135°26'0 0.0
2015-Apr-21 07:29N 34°37' E 135°26'0 0.0
2015-Apr-21 06:17N 34°37' E 135°26'0 0.0
2015-Apr-21 05:29N 34°37' E 135°26'0 0.0
2015-Apr-21 04:29N 34°37' E 135°26'0 0.0
2015-Apr-21 03:29N 34°37' E 135°26'0 0.0
2015-Apr-21 02:17N 34°37' E 135°26'0 0.0
2015-Apr-21 01:23N 34°37' E 135°26'0 0.0
2015-Apr-21 00:29N 34°37' E 135°26'0 0.0
2015-Apr-20 23:29N 34°37' E 135°26'0 0.0
2015-Apr-20 22:23N 34°37' E 135°26'0 0.0
2015-Apr-20 21:09N 34°37' E 135°26'5 9.1
2015-Apr-20 20:33N 34°36' E 135°19'1918.8
2015-Apr-20 19:33N 34°36' E 134°57'1 0.0
2015-Apr-19 14:32N 34°36' E 134°55'1919.3
2015-Apr-19 13:33N 34°36' E 135°18'6 6.5
2015-Apr-19 12:33N 34°37' E 135°26'0 0.0
2015-Apr-19 11:21N 34°37' E 135°26'0 0.0
2015-Apr-19 10:33N 34°37' E 135°26'0 0.0
2015-Apr-19 09:33N 34°37' E 135°26'0 0.0
2015-Apr-19 08:33N 34°37' E 135°26'0 0.0
2015-Apr-19 07:33N 34°37' E 135°26'0 0.0
2015-Apr-19 06:27N 34°37' E 135°26'0 0.0
2015-Apr-19 05:33N 34°37' E 135°26'0 0.0
2015-Apr-19 04:33N 34°37' E 135°26'0 0.0
2015-Apr-19 03:33N 34°37' E 135°26'0 0.0
2015-Apr-19 02:33N 34°37' E 135°26'0 0.0
2015-Apr-19 01:33N 34°37' E 135°26'0 0.0
2015-Apr-19 00:15N 34°37' E 135°26'0 0.0
2015-Apr-18 23:21N 34°37' E 135°26'0 0.0
2015-Apr-18 22:33N 34°37' E 135°26'0 0.0
2015-Apr-18 21:33N 34°37' E 135°26'6 6.5
2015-Apr-18 20:33N 34°36' E 135°18'1817.8
2015-Apr-18 19:33N 34°36' E 134°56'1 0.0
2015-Apr-17 14:33N 34°37' E 134°57'  

Dump ship's entire track history